Time;durP1;ratioP1;P1;durP2;ratioP2;P2;SDS_P1;SDS_P2;PMS_P1;PMS_P2;Temp;Humidity;BMP_temperature;BMP_pressure;BME280_temperature;BME280_humidity;BME280_pressure;Samples;Min_cycle;Max_cycle;Signal;HPM_P1;HPM_P2
2023/09/22 00:00:57;;;;;;;11.63;7.70;;;17.70;81.80;;;;;;5027416;28;20052;-65
2023/09/22 00:03:23;;;;;;;11.13;7.28;;;17.60;81.80;;;;;;5027002;28;20088;-64
2023/09/22 00:05:52;;;;;;;11.18;7.80;;;17.60;81.80;;;;;;5028629;28;20033;-65
2023/09/22 00:08:18;;;;;;;10.25;7.25;;;17.60;81.70;;;;;;5026710;28;20046;-65
2023/09/22 00:10:45;;;;;;;10.48;7.45;;;17.60;81.60;;;;;;5025292;28;20025;-65
2023/09/22 00:13:11;;;;;;;10.15;6.60;;;17.60;81.50;;;;;;5027896;28;20103;-65
2023/09/22 00:15:37;;;;;;;11.32;7.50;;;17.60;81.40;;;;;;5028140;28;20041;-65
2023/09/22 00:18:02;;;;;;;9.57;6.97;;;17.50;81.20;;;;;;5028190;28;20049;-65
2023/09/22 00:20:29;;;;;;;10.75;7.30;;;17.50;81.10;;;;;;5039810;28;20445;-65
2023/09/22 00:22:55;;;;;;;11.15;7.93;;;17.50;81.10;;;;;;5026871;28;20026;-65
2023/09/22 00:25:22;;;;;;;10.63;7.78;;;17.50;81.10;;;;;;5038684;28;20343;-65
2023/09/22 00:27:48;;;;;;;10.55;7.30;;;17.50;81.00;;;;;;5027730;28;20029;-65
2023/09/22 00:30:14;;;;;;;12.27;8.38;;;17.50;81.10;;;;;;5027679;28;20045;-65
2023/09/22 00:32:40;;;;;;;12.02;8.73;;;17.50;81.10;;;;;;5028040;28;20079;-65
2023/09/22 00:35:06;;;;;;;14.48;9.60;;;17.40;81.10;;;;;;5028542;28;20488;-65
2023/09/22 00:37:35;;;;;;;13.85;10.10;;;17.40;81.10;;;;;;5028287;28;20025;-65
2023/09/22 00:40:01;;;;;;;14.05;10.45;;;17.40;81.10;;;;;;5025845;28;20021;-65
2023/09/22 00:42:27;;;;;;;13.82;10.43;;;17.40;81.20;;;;;;5026590;28;20332;-64
2023/09/22 00:44:53;;;;;;;16.00;11.50;;;17.40;81.20;;;;;;5026977;28;20033;-65
2023/09/22 00:47:20;;;;;;;15.48;11.63;;;17.40;81.10;;;;;;5036072;28;20021;-65
2023/09/22 00:49:48;;;;;;;16.73;12.02;;;17.40;81.10;;;;;;5027231;28;20044;-65
2023/09/22 00:52:14;;;;;;;18.17;12.68;;;17.40;81.00;;;;;;5032719;28;20026;-65
2023/09/22 00:54:40;;;;;;;16.52;12.77;;;17.50;80.90;;;;;;5020564;28;20044;-65
2023/09/22 00:57:07;;;;;;;17.75;12.45;;;17.40;80.80;;;;;;5026034;28;20452;-65
2023/09/22 00:59:33;;;;;;;17.85;13.23;;;17.50;80.70;;;;;;5025850;28;20018;-65
2023/09/22 01:02:00;;;;;;;17.85;13.85;;;17.40;80.70;;;;;;5028007;28;20021;-65
2023/09/22 01:04:26;;;;;;;18.30;13.13;;;17.40;80.70;;;;;;5026498;28;20022;-64
2023/09/22 01:06:52;;;;;;;18.20;13.77;;;17.40;80.60;;;;;;5026739;28;20447;-65
2023/09/22 01:09:18;;;;;;;18.02;12.98;;;17.40;80.50;;;;;;5038713;28;20126;-64
2023/09/22 01:11:44;;;;;;;18.90;14.23;;;17.40;80.50;;;;;;5027217;28;20430;-65
2023/09/22 01:14:10;;;;;;;18.80;14.05;;;17.30;80.40;;;;;;5037936;28;20037;-65
2023/09/22 01:16:37;;;;;;;18.98;14.45;;;17.40;80.60;;;;;;5023036;28;20080;-65
2023/09/22 01:19:16;;;;;;;18.08;13.55;;;17.30;80.50;;;;;;5034898;28;20247;-65
2023/09/22 01:21:48;;;;;;;19.60;14.30;;;17.40;80.40;;;;;;5032639;28;20458;-65
2023/09/22 01:24:14;;;;;;;19.73;13.60;;;17.30;81.00;;;;;;5023930;28;20354;-65
2023/09/22 01:26:40;;;;;;;20.38;13.90;;;17.30;80.40;;;;;;5036503;28;20030;-65
2023/09/22 01:29:07;;;;;;;19.10;14.15;;;17.20;80.40;;;;;;5026011;28;20478;-64
2023/09/22 01:31:36;;;;;;;19.90;14.63;;;17.30;80.40;;;;;;5026811;28;20037;-64
2023/09/22 01:34:02;;;;;;;18.08;13.15;;;17.20;80.40;;;;;;5027531;28;20037;-65
2023/09/22 01:36:28;;;;;;;18.20;13.52;;;17.20;80.40;;;;;;5025179;28;20029;-65
2023/09/22 01:38:54;;;;;;;18.52;13.07;;;17.20;80.30;;;;;;5026103;28;20018;-65
2023/09/22 01:41:20;;;;;;;18.98;14.05;;;17.20;80.20;;;;;;5027434;28;20047;-65
2023/09/22 01:43:46;;;;;;;20.05;13.32;;;17.10;80.10;;;;;;5032475;28;20446;-65
2023/09/22 01:46:12;;;;;;;19.30;13.50;;;17.10;80.00;;;;;;5024583;28;20026;-65
2023/09/22 01:48:37;;;;;;;15.98;11.68;;;17.10;80.00;;;;;;5025697;28;20047;-64
2023/09/22 01:51:04;;;;;;;16.58;11.45;;;17.10;80.00;;;;;;5025504;28;20036;-65
2023/09/22 01:53:29;;;;;;;19.83;12.10;;;17.10;80.50;;;;;;5024260;28;20030;-65
2023/09/22 01:55:55;;;;;;;18.20;12.68;;;17.10;79.80;;;;;;5027045;28;20033;-65
2023/09/22 01:58:22;;;;;;;16.85;12.20;;;17.00;79.70;;;;;;5026959;28;20032;-65
2023/09/22 02:00:48;;;;;;;16.17;11.73;;;17.10;79.70;;;;;;5024266;28;20427;-65
2023/09/22 02:03:14;;;;;;;16.60;11.45;;;17.00;79.50;;;;;;5026355;28;20206;-64
2023/09/22 02:05:40;;;;;;;16.80;11.40;;;17.00;79.40;;;;;;5010387;28;20413;-65
2023/09/22 02:08:08;;;;;;;15.52;10.60;;;17.00;79.40;;;;;;5014057;28;20662;-64
2023/09/22 02:10:34;;;;;;;15.80;10.82;;;17.00;79.20;;;;;;5032780;28;20030;-65
2023/09/22 02:13:01;;;;;;;15.68;10.30;;;17.00;79.20;;;;;;5036149;28;20057;-64
2023/09/22 02:15:26;;;;;;;13.70;9.40;;;17.00;79.20;;;;;;5025306;28;20065;-65
2023/09/22 02:17:53;;;;;;;16.13;10.20;;;16.90;79.10;;;;;;5033461;28;20034;-65
2023/09/22 02:20:22;;;;;;;14.65;10.00;;;16.90;79.00;;;;;;5025203;28;20021;-65
2023/09/22 02:22:54;;;;;;;14.75;9.57;;;16.90;79.10;;;;;;5026492;28;20026;-65
2023/09/22 02:25:22;;;;;;;13.63;8.57;;;16.80;79.00;;;;;;5038249;28;20059;-65
2023/09/22 02:27:54;;;;;;;14.23;8.95;;;16.80;79.10;;;;;;5026646;28;20025;-64
2023/09/22 02:30:21;;;;;;;13.88;9.55;;;16.80;79.10;;;;;;5025346;28;20451;-65
2023/09/22 02:32:48;;;;;;;14.77;9.27;;;16.70;79.00;;;;;;5028187;28;20032;-65
2023/09/22 02:35:18;;;;;;;15.10;9.38;;;16.70;78.90;;;;;;5031180;28;20041;-65
2023/09/22 02:37:44;;;;;;;12.15;8.50;;;16.70;79.60;;;;;;5030153;28;20029;-65
2023/09/22 02:40:12;;;;;;;13.00;8.43;;;16.60;78.80;;;;;;5029012;28;20474;-65
2023/09/22 02:42:38;;;;;;;13.65;8.27;;;16.60;78.80;;;;;;5037798;28;20022;-65
2023/09/22 02:45:06;;;;;;;13.55;8.98;;;16.60;78.90;;;;;;5027997;28;20032;-64
2023/09/22 02:47:32;;;;;;;14.27;8.82;;;16.60;78.80;;;;;;5028977;28;20018;-65
2023/09/22 02:49:58;;;;;;;12.05;7.93;;;16.60;78.80;;;;;;5029475;28;20013;-65
2023/09/22 02:52:23;;;;;;;13.50;8.13;;;16.60;78.80;;;;;;5027274;28;20095;-65
2023/09/22 02:54:57;;;;;;;15.07;8.77;;;16.60;78.70;;;;;;5028023;28;20423;-64
2023/09/22 02:57:23;;;;;;;14.35;7.40;;;16.60;78.70;;;;;;5030154;28;20025;-65
2023/09/22 02:59:53;;;;;;;12.90;7.75;;;16.60;78.70;;;;;;5030242;28;20026;-65
2023/09/22 03:02:20;;;;;;;11.20;7.47;;;16.60;78.70;;;;;;5040905;28;20095;-64
2023/09/22 03:04:49;;;;;;;13.25;7.88;;;16.60;78.70;;;;;;5037815;28;20013;-65
2023/09/22 03:07:15;;;;;;;11.93;7.50;;;16.50;78.60;;;;;;5036105;28;20033;-65
2023/09/22 03:09:40;;;;;;;12.65;6.95;;;16.50;78.60;;;;;;5027236;28;20044;-65
2023/09/22 03:12:06;;;;;;;12.48;7.63;;;16.50;78.60;;;;;;5030104;28;20025;-65
2023/09/22 03:14:32;;;;;;;12.48;7.00;;;16.50;78.50;;;;;;5027994;28;20018;-65
2023/09/22 03:16:59;;;;;;;11.63;7.65;;;16.50;78.50;;;;;;5028077;28;20740;-65
2023/09/22 03:19:25;;;;;;;12.98;7.43;;;16.40;78.50;;;;;;5029857;28;20083;-65
2023/09/22 03:21:50;;;;;;;12.07;7.20;;;16.40;78.50;;;;;;5043850;28;20021;-65
2023/09/22 03:24:16;;;;;;;12.40;6.65;;;16.40;78.50;;;;;;5028009;28;20030;-65
2023/09/22 03:26:42;;;;;;;12.52;7.07;;;16.40;78.40;;;;;;5028248;28;20061;-65
2023/09/22 03:29:08;;;;;;;11.20;6.43;;;16.40;78.40;;;;;;5043373;28;20040;-65
2023/09/22 03:31:36;;;;;;;13.20;6.80;;;16.40;78.50;;;;;;5026529;28;20473;-65
2023/09/22 03:34:03;;;;;;;12.20;6.80;;;16.40;78.50;;;;;;5043100;28;20458;-64
2023/09/22 03:36:30;;;;;;;10.65;6.75;;;16.40;78.50;;;;;;5043309;28;20448;-65
2023/09/22 03:38:57;;;;;;;12.73;7.25;;;16.40;78.50;;;;;;5028215;28;20079;-65
2023/09/22 03:41:28;;;;;;;12.73;6.38;;;16.40;78.50;;;;;;5042584;28;20022;-65
2023/09/22 03:43:55;;;;;;;;;;;16.40;78.50;;;;;;5039600;28;20030;-65
2023/09/22 03:46:21;;;;;;;10.65;6.13;;;16.30;78.50;;;;;;5042534;28;19935;-64
2023/09/22 03:48:48;;;;;;;11.00;6.95;;;16.30;78.50;;;;;;5042883;28;20029;-65
2023/09/22 03:51:14;;;;;;;12.00;6.85;;;16.30;78.50;;;;;;5042275;28;20029;-64
2023/09/22 03:53:41;;;;;;;11.32;6.63;;;16.30;78.60;;;;;;5042790;28;20033;-65
2023/09/22 03:56:09;;;;;;;11.00;7.00;;;16.30;78.50;;;;;;5026659;28;20049;-65
2023/09/22 03:58:35;;;;;;;13.30;7.80;;;16.30;78.40;;;;;;5029236;28;20030;-65
2023/09/22 04:01:08;;;;;;;12.80;6.88;;;16.30;78.50;;;;;;5029019;28;20030;-65
2023/09/22 04:03:35;;;;;;;12.00;7.00;;;16.30;78.50;;;;;;5042534;28;20032;-65
2023/09/22 04:06:02;;;;;;;12.55;7.50;;;16.30;78.60;;;;;;5041478;28;20022;-65
2023/09/22 04:08:27;;;;;;;12.60;7.68;;;16.30;78.60;;;;;;5026884;28;20045;-64
2023/09/22 04:10:53;;;;;;;11.63;7.38;;;16.30;78.70;;;;;;5027410;28;20044;-64
2023/09/22 04:13:19;;;;;;;12.73;7.65;;;16.30;78.70;;;;;;5028423;28;20406;-65
2023/09/22 04:15:48;;;;;;;13.00;6.88;;;16.30;78.80;;;;;;5028545;28;20049;-65
2023/09/22 04:18:13;;;;;;;13.93;7.13;;;16.30;78.80;;;;;;5021496;28;20026;-65
2023/09/22 04:20:44;;;;;;;12.15;6.65;;;16.30;78.70;;;;;;5029349;28;20320;-65
2023/09/22 04:23:10;;;;;;;14.02;7.38;;;16.30;78.60;;;;;;5028556;28;20088;-65
2023/09/22 04:25:37;;;;;;;13.57;7.18;;;16.30;78.60;;;;;;5025935;28;20045;-65
2023/09/22 04:28:11;;;;;;;10.50;6.13;;;16.30;78.70;;;;;;5026172;28;20052;-65
2023/09/22 04:30:38;;;;;;;11.70;6.97;;;16.30;78.70;;;;;;5032240;28;20037;-65
2023/09/22 04:33:05;;;;;;;12.82;6.95;;;16.30;78.70;;;;;;5030073;28;20033;-65
2023/09/22 04:35:32;;;;;;;12.68;6.43;;;16.40;78.70;;;;;;5028887;28;20427;-65
2023/09/22 04:38:02;;;;;;;12.02;6.35;;;16.40;78.60;;;;;;5028899;28;20039;-66
2023/09/22 04:40:34;;;;;;;10.85;6.28;;;16.40;78.70;;;;;;5028643;28;20075;-65
2023/09/22 04:43:00;;;;;;;12.65;6.93;;;16.40;79.00;;;;;;5028381;28;20049;-66
2023/09/22 04:45:26;;;;;;;10.25;6.15;;;16.40;78.70;;;;;;5029512;28;20080;-66
2023/09/22 04:47:52;;;;;;;11.55;6.15;;;16.40;78.70;;;;;;5019771;28;20088;-66
2023/09/22 04:50:18;;;;;;;10.82;6.32;;;16.40;78.70;;;;;;5037260;28;20076;-66
2023/09/22 04:52:45;;;;;;;10.90;5.55;;;16.40;78.70;;;;;;5035595;28;20481;-66
2023/09/22 04:55:11;;;;;;;9.70;5.65;;;16.40;78.70;;;;;;5033165;28;20021;-65
2023/09/22 04:57:37;;;;;;;10.05;5.50;;;16.40;78.70;;;;;;5032370;28;20030;-68
2023/09/22 05:00:09;;;;;;;9.90;5.30;;;16.40;78.70;;;;;;5031507;28;20104;-69
2023/09/22 05:02:35;;;;;;;9.20;5.20;;;16.40;78.70;;;;;;5032281;28;20446;-69
2023/09/22 05:05:01;;;;;;;11.25;5.78;;;16.40;78.70;;;;;;5038939;28;20052;-69
2023/09/22 05:07:28;;;;;;;9.43;5.72;;;16.40;78.80;;;;;;5035145;28;20453;-66
2023/09/22 05:09:54;;;;;;;8.18;4.32;;;16.40;78.80;;;;;;5035327;28;20049;-65
2023/09/22 05:12:20;;;;;;;11.48;4.72;;;16.40;78.90;;;;;;5030597;28;20072;-68
2023/09/22 05:14:45;;;;;;;9.18;4.53;;;16.40;78.80;;;;;;5029594;28;20041;-69
2023/09/22 05:17:12;;;;;;;8.80;4.45;;;16.40;78.70;;;;;;5036587;28;20036;-69
2023/09/22 05:19:38;;;;;;;9.35;4.82;;;16.40;78.80;;;;;;5036072;28;20063;-69
2023/09/22 05:22:04;;;;;;;10.13;4.30;;;16.40;78.90;;;;;;5034943;28;20029;-69
2023/09/22 05:24:31;;;;;;;8.52;4.70;;;16.50;78.90;;;;;;5034681;28;20515;-69
2023/09/22 05:26:57;;;;;;;9.60;4.50;;;16.40;78.70;;;;;;5031856;28;20029;-70
2023/09/22 05:29:22;;;;;;;9.50;4.60;;;16.40;78.80;;;;;;5032367;28;20375;-69
2023/09/22 05:31:48;;;;;;;8.57;4.45;;;16.40;78.70;;;;;;5047511;28;20439;-69
2023/09/22 05:34:14;;;;;;;9.30;4.43;;;16.40;78.70;;;;;;5047627;28;20029;-69
2023/09/22 05:36:42;;;;;;;7.65;4.20;;;16.40;78.70;;;;;;5039330;28;20342;-70
2023/09/22 05:39:10;;;;;;;10.20;4.32;;;16.40;78.80;;;;;;5023475;28;20018;-69
2023/09/22 05:41:36;;;;;;;8.32;4.43;;;16.50;78.90;;;;;;5032308;28;20415;-70
2023/09/22 05:44:01;;;;;;;8.50;4.30;;;16.40;78.80;;;;;;5034011;28;20049;-70
2023/09/22 05:46:27;;;;;;;10.10;4.43;;;16.50;78.80;;;;;;5034095;28;20028;-69
2023/09/22 05:48:57;;;;;;;7.13;3.80;;;16.50;78.70;;;;;;5028521;28;20333;-70
2023/09/22 05:51:23;;;;;;;8.60;4.00;;;16.50;78.60;;;;;;5026392;28;20466;-69
2023/09/22 05:53:51;;;;;;;8.40;4.07;;;16.50;78.50;;;;;;5026634;28;20029;-70
2023/09/22 05:56:17;;;;;;;9.13;4.50;;;16.50;78.50;;;;;;5027994;28;20112;-69
2023/09/22 05:58:42;;;;;;;9.70;4.50;;;16.50;78.60;;;;;;5028379;28;20565;-69
2023/09/22 06:01:13;;;;;;;8.32;4.18;;;16.40;78.70;;;;;;5041028;28;20121;-70
2023/09/22 06:03:40;;;;;;;9.05;3.78;;;16.40;78.70;;;;;;5043912;28;20060;-70
2023/09/22 06:06:14;;;;;;;8.57;3.70;;;16.30;78.70;;;;;;5026707;28;20427;-69
2023/09/22 06:08:43;;;;;;;7.88;3.85;;;16.30;78.70;;;;;;5033202;28;20045;-69
2023/09/22 06:11:10;;;;;;;8.10;3.90;;;16.30;78.70;;;;;;5031079;28;20037;-69
2023/09/22 06:13:37;;;;;;;7.15;3.60;;;16.30;78.60;;;;;;5028958;28;20120;-69
2023/09/22 06:16:04;;;;;;;7.10;3.30;;;16.30;78.60;;;;;;5046012;28;20048;-70
2023/09/22 06:18:30;;;;;;;8.50;3.70;;;16.30;78.60;;;;;;5030608;28;20112;-68
2023/09/22 06:20:57;;;;;;;7.93;3.45;;;16.30;78.60;;;;;;5046527;28;21423;-68
2023/09/22 06:23:24;;;;;;;8.48;3.42;;;16.30;78.70;;;;;;5029587;28;20025;-69
2023/09/22 06:25:51;;;;;;;8.18;3.45;;;16.40;78.70;;;;;;5030158;28;20056;-68
2023/09/22 06:28:18;;;;;;;7.65;3.20;;;16.40;78.60;;;;;;5030941;28;20033;-67
2023/09/22 06:30:46;;;;;;;8.00;3.63;;;16.40;78.60;;;;;;5031202;28;20045;-68
2023/09/22 06:33:16;;;;;;;6.82;3.10;;;16.40;78.60;;;;;;5045613;28;20407;-68
2023/09/22 06:35:43;;;;;;;7.97;3.67;;;16.40;78.60;;;;;;5030873;28;20097;-67
2023/09/22 06:38:10;;;;;;;6.75;3.15;;;16.50;78.60;;;;;;5031446;28;20017;-68
2023/09/22 06:40:36;;;;;;;8.85;3.10;;;16.50;78.50;;;;;;5031737;28;20029;-68
2023/09/22 06:43:04;;;;;;;6.13;3.00;;;16.50;78.40;;;;;;5030120;28;20638;-68
2023/09/22 06:45:32;;;;;;;5.32;2.22;;;16.60;78.40;;;;;;5028590;28;20136;-68
2023/09/22 06:47:59;;;;;;;7.40;2.67;;;16.60;78.20;;;;;;5028805;28;20125;-69
2023/09/22 06:50:26;;;;;;;7.30;2.60;;;16.60;78.00;;;;;;5030514;28;20129;-70
2023/09/22 06:52:51;;;;;;;6.22;2.70;;;16.60;78.00;;;;;;5027312;28;20071;-71
2023/09/22 06:55:18;;;;;;;7.70;2.90;;;16.70;78.00;;;;;;5028375;28;20034;-69
2023/09/22 06:57:44;;;;;;;5.68;2.78;;;16.70;77.80;;;;;;5028282;28;20446;-70
2023/09/22 07:00:22;;;;;;;7.60;2.78;;;16.70;77.70;;;;;;5030539;28;20117;-70
2023/09/22 07:02:48;;;;;;;7.95;2.97;;;16.80;78.30;;;;;;5030290;28;20366;-71
2023/09/22 07:05:15;;;;;;;5.53;2.20;;;16.80;77.50;;;;;;5029515;28;20084;-71
2023/09/22 07:07:41;;;;;;;6.13;2.42;;;16.90;77.40;;;;;;5027710;28;20075;-71
2023/09/22 07:10:11;;;;;;;5.47;2.17;;;16.90;77.10;;;;;;5026820;28;20413;-70
2023/09/22 07:12:37;;;;;;;6.40;2.35;;;16.90;77.10;;;;;;5029614;28;20071;-70
2023/09/22 07:15:04;;;;;;;5.65;2.25;;;16.90;77.00;;;;;;5046692;28;20025;-69
2023/09/22 07:17:31;;;;;;;6.30;2.55;;;17.00;77.00;;;;;;5027877;28;20029;-71
2023/09/22 07:19:57;;;;;;;6.15;2.13;;;17.00;76.80;;;;;;5030197;28;20033;-71
2023/09/22 07:22:23;;;;;;;5.57;2.45;;;17.00;76.70;;;;;;5029058;28;20030;-71
2023/09/22 07:24:51;;;;;;;5.10;2.15;;;17.00;76.60;;;;;;5029425;28;20022;-70
2023/09/22 07:27:17;;;;;;;6.20;2.17;;;17.10;76.70;;;;;;5028019;28;20040;-71
2023/09/22 07:29:43;;;;;;;5.03;2.17;;;17.20;76.50;;;;;;5029827;28;20051;-73
2023/09/22 07:32:09;;;;;;;4.35;1.85;;;17.30;76.30;;;;;;5029156;28;20025;-71
2023/09/22 07:34:35;;;;;;;8.88;2.65;;;17.40;76.10;;;;;;5027858;28;20121;-72
2023/09/22 07:37:00;;;;;;;6.13;1.80;;;17.50;75.80;;;;;;5029606;28;20048;-72
2023/09/22 07:39:26;;;;;;;4.97;1.83;;;17.50;75.60;;;;;;5043045;28;20155;-70
2023/09/22 07:41:52;;;;;;;4.22;1.80;;;17.60;76.10;;;;;;5028879;28;20060;-70
2023/09/22 07:44:21;;;;;;;4.57;2.03;;;17.60;75.20;;;;;;5029394;28;20096;-71
2023/09/22 07:46:50;;;;;;;4.90;1.70;;;17.70;75.10;;;;;;5030008;28;20026;-72
2023/09/22 07:49:16;;;;;;;6.85;2.47;;;17.80;75.50;;;;;;5028705;28;20116;-72
2023/09/22 07:51:42;;;;;;;4.13;1.77;;;17.90;74.60;;;;;;5028814;28;20120;-70
2023/09/22 07:54:08;;;;;;;3.45;1.70;;;18.10;74.40;;;;;;5028004;28;20041;-72
2023/09/22 07:56:34;;;;;;;4.93;1.88;;;18.20;74.00;;;;;;5026266;28;20030;-70
2023/09/22 07:59:03;;;;;;;4.22;1.90;;;18.30;74.00;;;;;;5028326;28;20493;-70
2023/09/22 08:01:29;;;;;;;2.33;1.27;;;18.50;72.80;;;;;;5030309;28;20044;-70
2023/09/22 08:03:55;;;;;;;4.90;1.73;;;18.60;72.20;;;;;;5034560;28;20041;-71
2023/09/22 08:06:21;;;;;;;4.93;1.65;;;18.80;71.70;;;;;;5034569;28;20075;-71
2023/09/22 08:08:49;;;;;;;4.53;1.52;;;18.90;71.30;;;;;;5033488;28;20049;-71
2023/09/22 08:11:19;;;;;;;5.32;1.65;;;18.90;70.90;;;;;;5034338;28;20029;-71
2023/09/22 08:13:47;;;;;;;4.20;1.70;;;19.00;70.50;;;;;;5034186;28;20124;-71
2023/09/22 08:16:13;;;;;;;4.53;1.70;;;19.10;70.50;;;;;;5035086;28;20040;-71
2023/09/22 08:18:40;;;;;;;2.42;1.25;;;19.10;70.10;;;;;;5033540;28;20025;-71
2023/09/22 08:21:07;;;;;;;3.38;1.30;;;19.20;70.00;;;;;;5035360;28;20443;-71
2023/09/22 08:23:33;;;;;;;5.18;1.60;;;19.30;69.60;;;;;;5035597;28;20029;-71
2023/09/22 08:26:05;;;;;;;4.15;1.38;;;19.40;68.90;;;;;;5035009;28;20021;-71
2023/09/22 08:28:32;;;;;;;6.00;1.73;;;19.50;68.80;;;;;;5050456;28;20094;-71
2023/09/22 08:30:58;;;;;;;4.15;1.48;;;19.50;68.60;;;;;;5014689;28;20095;-71
2023/09/22 08:33:24;;;;;;;2.95;1.20;;;19.60;68.20;;;;;;5033679;28;20082;-71
2023/09/22 08:35:51;;;;;;;3.13;1.23;;;19.60;68.10;;;;;;5035092;28;20029;-71
2023/09/22 08:38:18;;;;;;;3.65;1.30;;;19.60;67.70;;;;;;5033700;28;20025;-71
2023/09/22 08:40:47;;;;;;;3.15;1.15;;;19.60;67.60;;;;;;5033124;28;20045;-71
2023/09/22 08:43:13;;;;;;;4.55;1.30;;;19.60;67.40;;;;;;5034171;28;20032;-72
2023/09/22 08:45:40;;;;;;;3.00;1.25;;;19.50;67.40;;;;;;5033754;28;20033;-71
2023/09/22 08:48:06;;;;;;;4.05;1.50;;;19.30;67.40;;;;;;5032675;28;20060;-68
2023/09/22 08:50:32;;;;;;;2.78;1.17;;;19.20;67.50;;;;;;5032275;28;20036;-70
2023/09/22 08:52:57;;;;;;;3.72;1.00;;;19.10;67.60;;;;;;5028520;28;20029;-69
2023/09/22 08:55:25;;;;;;;2.58;1.17;;;19.30;67.50;;;;;;5039067;28;20462;-69
2023/09/22 08:57:52;;;;;;;3.25;1.00;;;19.50;67.00;;;;;;5033055;28;20021;-67
2023/09/22 09:00:23;;;;;;;4.53;1.30;;;19.80;66.50;;;;;;5026041;28;20399;-67
2023/09/22 09:02:50;;;;;;;;;;;20.00;65.80;;;;;;5027831;28;20044;-67
2023/09/22 09:05:30;;;;;;;3.50;1.05;;;20.20;65.80;;;;;;5027629;28;20050;-67
2023/09/22 09:08:10;;;;;;;3.75;1.05;;;20.40;65.00;;;;;;5028176;28;20044;-67
2023/09/22 09:10:36;;;;;;;3.92;1.40;;;20.60;64.50;;;;;;5042021;28;20060;-67
2023/09/22 09:13:03;;;;;;;3.20;1.30;;;21.00;63.90;;;;;;5027463;28;20024;-67
2023/09/22 09:15:50;;;;;;;2.72;0.93;;;21.00;63.30;;;;;;5027128;28;20096;-67
2023/09/22 09:18:19;;;;;;;2.15;1.00;;;20.80;62.90;;;;;;5043732;28;20021;-67
2023/09/22 09:20:48;;;;;;;3.92;1.08;;;20.90;63.00;;;;;;5023168;28;20017;-67
2023/09/22 09:23:22;;;;;;;3.47;0.95;;;21.10;62.60;;;;;;5028498;28;20042;-68
2023/09/22 09:25:50;;;;;;;4.38;1.20;;;21.20;62.00;;;;;;5025580;28;20021;-69
2023/09/22 09:28:18;;;;;;;4.63;1.00;;;21.30;61.90;;;;;;5030134;28;20474;-70
2023/09/22 09:30:54;;;;;;;1.52;0.82;;;21.50;61.50;;;;;;5027114;28;20025;-68
2023/09/22 09:33:25;;;;;;;1.95;0.90;;;21.70;60.90;;;;;;5028454;28;20500;-67
2023/09/22 09:35:52;;;;;;;4.15;1.10;;;21.90;60.40;;;;;;5028362;28;20050;-67
2023/09/22 09:38:19;;;;;;;1.92;0.93;;;22.00;60.20;;;;;;5027176;28;20041;-67
2023/09/22 09:40:46;;;;;;;2.38;0.88;;;22.20;59.70;;;;;;5038482;28;20100;-67
2023/09/22 09:43:13;;;;;;;2.45;0.90;;;22.30;59.40;;;;;;5029982;28;20091;-68
2023/09/22 09:45:46;;;;;;;2.00;0.88;;;22.40;59.20;;;;;;5032819;28;20053;-69
2023/09/22 09:48:16;;;;;;;2.35;0.85;;;22.40;58.70;;;;;;5031239;28;20026;-69
2023/09/22 09:50:51;;;;;;;2.15;1.00;;;22.40;58.40;;;;;;5029757;28;20132;-69
2023/09/22 09:53:42;;;;;;;1.73;0.80;;;22.50;57.60;;;;;;5029754;28;20421;-69
2023/09/22 09:56:13;;;;;;;3.45;1.25;;;22.50;57.50;;;;;;5028819;28;20086;-71
2023/09/22 09:58:39;;;;;;;1.80;0.70;;;22.60;57.20;;;;;;5046633;28;20378;-70
2023/09/22 10:01:06;;;;;;;2.92;0.98;;;22.70;57.20;;;;;;5043206;28;20029;-68
2023/09/22 10:03:33;;;;;;;4.65;1.58;;;22.80;57.00;;;;;;5031471;28;20120;-69
2023/09/22 10:06:06;;;;;;;4.07;1.30;;;23.00;56.80;;;;;;5033773;28;20443;-69
2023/09/22 10:08:32;;;;;;;2.13;0.90;;;23.10;56.60;;;;;;5046564;28;20065;-70
2023/09/22 10:11:01;;;;;;;1.95;0.98;;;23.20;56.40;;;;;;5049112;28;20651;-69
2023/09/22 10:13:27;;;;;;;2.80;1.00;;;23.20;56.20;;;;;;5036057;28;20120;-69
2023/09/22 10:15:59;;;;;;;5.35;1.20;;;23.00;56.30;;;;;;5033174;28;20529;-70
2023/09/22 10:18:48;;;;;;;1.83;0.80;;;22.50;57.00;;;;;;5038721;28;20061;-70
2023/09/22 10:21:29;;;;;;;4.45;0.98;;;21.90;57.50;;;;;;5035325;28;20112;-70
2023/09/22 10:24:14;;;;;;;4.47;1.20;;;21.60;58.00;;;;;;5039318;28;20068;-68
2023/09/22 10:27:07;;;;;;;3.50;1.02;;;21.50;58.20;;;;;;5033830;28;20040;-69
2023/09/22 10:29:33;;;;;;;2.70;1.13;;;21.70;57.90;;;;;;5035454;28;20473;-69
2023/09/22 10:32:38;;;;;;;2.33;0.90;;;21.70;57.60;;;;;;5034979;28;20038;-69
2023/09/22 10:35:09;;;;;;;1.30;0.80;;;21.60;57.70;;;;;;5034115;28;20492;-69
2023/09/22 10:37:36;;;;;;;2.35;0.93;;;21.60;57.70;;;;;;5038283;28;20053;-69
2023/09/22 10:40:08;;;;;;;4.65;0.95;;;21.40;57.70;;;;;;5038904;28;20071;-69
2023/09/22 10:42:44;;;;;;;2.13;0.85;;;21.20;57.70;;;;;;5036016;28;20526;-70
2023/09/22 10:45:11;;;;;;;2.95;0.82;;;21.30;57.90;;;;;;5032778;28;20048;-69
2023/09/22 10:47:38;;;;;;;1.38;0.70;;;21.40;57.60;;;;;;5038423;28;20021;-69
2023/09/22 10:50:21;;;;;;;3.40;1.13;;;21.60;57.50;;;;;;5035827;28;20021;-69
2023/09/22 10:53:06;;;;;;;2.53;1.00;;;21.80;57.20;;;;;;5035647;28;20029;-70
2023/09/22 10:55:37;;;;;;;1.77;0.82;;;22.00;56.80;;;;;;5037735;28;20110;-69
2023/09/22 10:58:07;;;;;;;2.45;0.95;;;22.10;56.60;;;;;;5050997;28;20450;-69
2023/09/22 11:00:39;;;;;;;5.15;1.20;;;22.20;56.30;;;;;;5032669;28;20040;-69
2023/09/22 11:03:10;;;;;;;4.63;1.00;;;22.20;56.10;;;;;;5034040;28;20033;-69
2023/09/22 11:05:37;;;;;;;3.20;0.70;;;22.30;55.90;;;;;;5035565;28;20104;-69
2023/09/22 11:08:13;;;;;;;2.50;0.82;;;22.40;55.70;;;;;;5034338;28;20030;-70
2023/09/22 11:10:41;;;;;;;2.13;0.90;;;22.40;55.10;;;;;;5049832;28;20373;-69
2023/09/22 11:13:07;;;;;;;1.63;0.80;;;22.50;55.00;;;;;;5041133;28;20083;-69
2023/09/22 11:15:35;;;;;;;2.30;0.93;;;22.50;54.70;;;;;;5027418;28;20550;-69
2023/09/22 11:18:01;;;;;;;3.80;0.93;;;22.50;54.70;;;;;;5031825;28;20037;-68
2023/09/22 11:20:27;;;;;;;2.83;0.88;;;22.60;54.80;;;;;;5029741;28;20036;-68
2023/09/22 11:22:54;;;;;;;2.58;1.00;;;22.70;54.70;;;;;;5045966;28;20030;-68
2023/09/22 11:25:22;;;;;;;2.92;0.95;;;22.60;54.50;;;;;;5030882;28;20031;-69
2023/09/22 11:27:49;;;;;;;1.92;0.88;;;22.50;54.60;;;;;;5028698;28;20386;-68
2023/09/22 11:30:19;;;;;;;2.05;0.80;;;22.30;54.70;;;;;;5045360;28;20030;-68
2023/09/22 11:32:46;;;;;;;3.08;0.80;;;22.10;55.00;;;;;;5030630;28;20033;-68
2023/09/22 11:35:41;;;;;;;2.33;0.68;;;21.90;55.20;;;;;;5031548;28;20559;-68
2023/09/22 11:38:30;;;;;;;1.73;0.70;;;21.90;55.30;;;;;;5043970;28;20026;-68
2023/09/22 11:41:11;;;;;;;4.95;1.05;;;22.00;55.10;;;;;;5029816;28;20025;-68
2023/09/22 11:43:41;;;;;;;2.45;0.82;;;22.10;54.70;;;;;;5030316;28;20017;-68
2023/09/22 11:46:11;;;;;;;2.08;0.95;;;22.10;54.80;;;;;;5042869;28;20534;-69
2023/09/22 11:49:00;;;;;;;2.28;0.95;;;22.20;54.80;;;;;;5029962;28;20029;-69
2023/09/22 11:51:56;;;;;;;3.40;1.20;;;22.20;54.70;;;;;;5029014;28;20429;-68
2023/09/22 11:54:24;;;;;;;4.03;0.93;;;22.20;54.80;;;;;;5030271;28;20052;-69
2023/09/22 11:56:57;;;;;;;3.70;1.20;;;22.20;54.70;;;;;;5029237;28;20021;-69
2023/09/22 11:59:31;;;;;;;3.83;1.10;;;22.20;55.00;;;;;;5029753;28;20057;-69
2023/09/22 12:01:57;;;;;;;2.47;0.90;;;22.20;54.80;;;;;;5028411;28;20029;-69
2023/09/22 12:04:23;;;;;;;2.45;0.80;;;22.20;54.80;;;;;;5029410;28;20103;-69
2023/09/22 12:06:53;;;;;;;1.98;0.70;;;22.10;54.70;;;;;;5014311;28;20462;-69
2023/09/22 12:09:19;;;;;;;2.70;1.05;;;22.10;54.60;;;;;;5028952;28;20045;-69
2023/09/22 12:11:46;;;;;;;3.90;1.10;;;22.10;54.70;;;;;;5028729;28;20036;-69
2023/09/22 12:14:12;;;;;;;4.43;1.08;;;22.10;54.60;;;;;;5029119;28;20473;-69
2023/09/22 12:16:41;;;;;;;4.63;1.42;;;22.10;54.50;;;;;;5032248;28;20505;-69
2023/09/22 12:19:07;;;;;;;1.70;0.85;;;22.00;54.40;;;;;;5034382;28;20447;-69
2023/09/22 12:21:35;;;;;;;2.10;0.93;;;22.00;54.60;;;;;;5033429;28;20048;-69
2023/09/22 12:24:01;;;;;;;1.75;0.90;;;21.90;54.60;;;;;;5043378;28;20025;-69
2023/09/22 12:26:26;;;;;;;2.95;1.02;;;21.80;54.60;;;;;;5030894;28;20029;-69
2023/09/22 12:28:52;;;;;;;2.60;0.82;;;21.70;54.60;;;;;;5025598;28;20439;-69
2023/09/22 12:31:19;;;;;;;3.20;1.05;;;21.60;55.30;;;;;;5029259;28;20040;-69
2023/09/22 12:33:47;;;;;;;2.28;0.95;;;21.60;54.60;;;;;;5029228;28;20102;-69
2023/09/22 12:36:14;;;;;;;4.47;1.00;;;21.60;54.60;;;;;;5028435;28;20043;-69
2023/09/22 12:38:44;;;;;;;3.58;0.80;;;21.50;54.70;;;;;;5030355;28;20032;-69
2023/09/22 12:41:11;;;;;;;2.42;1.10;;;21.40;54.90;;;;;;5029064;28;20030;-69
2023/09/22 12:43:37;;;;;;;2.55;0.90;;;21.30;55.20;;;;;;5032999;28;20040;-69
2023/09/22 12:46:08;;;;;;;4.20;1.08;;;21.20;55.30;;;;;;5031484;28;20025;-69
2023/09/22 12:48:33;;;;;;;2.17;0.98;;;21.10;55.50;;;;;;5031399;28;20025;-69